首页
METAR-TAF:

METAR-TAF

机场 :

阿根廷港, 福克兰群岛

纬度: 51-49S, 经度: 058-27W, 海拔: 74米

当前天气观测

该预报发布于41分钟前的14:50 UTC
风速29节,风向北转西北,有时为39节阵风
温度 9°C
湿度 76%
气压 990 hPa
能见度10公里或以上
少量云层高于2000英尺
散云层高于10000英尺
多云层高于19000英尺

METAR: EGYP 161450Z 34029G39KT 9999 FEW020 SCT100 BKN190 09/05 Q0990 BLU NOSIG

时间: 12:31 (15:31 UTC)

预报

该预报发布于1小时和54分钟前的13:37 UTC
预报有效从16日的 15点(UTC)到 17日的 09点(UTC)
风速18节,风向北转西北,有时为28节阵风
能见度10公里或以上
少量云层高于1200英尺
短暂存在
从 16日的 15点(UTC)到 16日的 18点(UTC)
风速23节,风向北转西北,有时为38节阵风
成为
从 16日的 17点(UTC)到 16日的 20点(UTC)
风速17节,风向西,有时为28节阵风
成为
从 16日的 21点(UTC)到 16日的 23点(UTC)
风速12节,风向西转西南
几率 40% :
短暂存在
从 16日的 21点(UTC)到 17日的 04点(UTC)
散云层高于1200英尺
几率 40% :
短暂存在
从 17日的 06点(UTC)到 17日的 09点(UTC)
能見度: 2000
散云层高于400英尺
轻雾
几率 30% :
短暂存在
从 17日的 06点(UTC)到 17日的 09点(UTC)
能見度: 0500

TAF: EGYP 161337Z 1615/1709 34018G28KT 9999 FEW012 TEMPO 1615/1618 33023G38KT BECMG 1617/1620 28017G28KT BECMG 1621/1623 25012KT PROB40 TEMPO 1621/1704 SCT012 PROB40 TEMPO 1706/1709 2000 BR SCT004 PROB30 TEMPO 1706/1709 0500 FG VV///

超过4000个机场的气象观测和天气预报(METAR&TAF报告)。

可查询的气象台以黄色和红色小点在地图上表示。

将鼠标移到小点上方,可查看气象台名称。

然后点击查看天气观测和预报。

如需切换地图:点击带黑十字的绿色按钮放大地图;点击带横线的绿色按钮缩小地图;或者点击绿色箭头查看邻近地区的地图。


METAR-TAF: